sensor_id;sensor_type;location;lat;lon;timestamp;temperature;humidity
30764;DHT22;17497;51.476;7.770;2022-09-02T00:01:37;17.50;87.20
30764;DHT22;17497;51.476;7.770;2022-09-02T00:04:10;17.50;88.00
30764;DHT22;17497;51.476;7.770;2022-09-02T00:06:40;17.50;88.50
30764;DHT22;17497;51.476;7.770;2022-09-02T00:09:09;17.40;88.40
30764;DHT22;17497;51.476;7.770;2022-09-02T00:11:38;17.40;88.40
30764;DHT22;17497;51.476;7.770;2022-09-02T00:14:09;17.30;90.10
30764;DHT22;17497;51.476;7.770;2022-09-02T00:16:37;17.20;90.30
30764;DHT22;17497;51.476;7.770;2022-09-02T00:21:32;17.10;90.00
30764;DHT22;17497;51.476;7.770;2022-09-02T00:24:04;17.10;90.00
30764;DHT22;17497;51.476;7.770;2022-09-02T00:26:31;17.10;90.40
30764;DHT22;17497;51.476;7.770;2022-09-02T00:28:58;17.00;90.60
30764;DHT22;17497;51.476;7.770;2022-09-02T00:31:25;17.00;90.70
30764;DHT22;17497;51.476;7.770;2022-09-02T00:33:54;17.00;90.90
30764;DHT22;17497;51.476;7.770;2022-09-02T00:36:21;17.00;91.40
30764;DHT22;17497;51.476;7.770;2022-09-02T00:38:48;16.90;91.40
30764;DHT22;17497;51.476;7.770;2022-09-02T00:41:18;16.90;91.70
30764;DHT22;17497;51.476;7.770;2022-09-02T00:43:56;16.80;91.70
30764;DHT22;17497;51.476;7.770;2022-09-02T00:46:25;16.70;91.90
30764;DHT22;17497;51.476;7.770;2022-09-02T00:49:17;16.70;92.00
30764;DHT22;17497;51.476;7.770;2022-09-02T00:52:12;16.60;92.30
30764;DHT22;17497;51.476;7.770;2022-09-02T00:55:10;16.60;92.20
30764;DHT22;17497;51.476;7.770;2022-09-02T00:57:42;16.60;92.10
30764;DHT22;17497;51.476;7.770;2022-09-02T01:00:17;16.60;92.50
30764;DHT22;17497;51.476;7.770;2022-09-02T01:02:48;16.60;93.20
30764;DHT22;17497;51.476;7.770;2022-09-02T01:05:17;16.50;93.00
30764;DHT22;17497;51.476;7.770;2022-09-02T01:07:45;16.50;92.70
30764;DHT22;17497;51.476;7.770;2022-09-02T01:10:15;16.50;92.90
30764;DHT22;17497;51.476;7.770;2022-09-02T01:12:42;16.50;92.00
30764;DHT22;17497;51.476;7.770;2022-09-02T01:15:10;16.60;92.50
30764;DHT22;17497;51.476;7.770;2022-09-02T01:17:45;16.60;92.30
30764;DHT22;17497;51.476;7.770;2022-09-02T01:20:15;16.70;92.00
30764;DHT22;17497;51.476;7.770;2022-09-02T01:22:42;16.80;91.70
30764;DHT22;17497;51.476;7.770;2022-09-02T01:25:15;16.80;91.60
30764;DHT22;17497;51.476;7.770;2022-09-02T01:27:42;16.90;91.20
30764;DHT22;17497;51.476;7.770;2022-09-02T01:30:12;16.90;91.00
30764;DHT22;17497;51.476;7.770;2022-09-02T01:32:39;17.00;91.20
30764;DHT22;17497;51.476;7.770;2022-09-02T01:35:07;17.00;91.40
30764;DHT22;17497;51.476;7.770;2022-09-02T01:37:33;17.00;91.20
30764;DHT22;17497;51.476;7.770;2022-09-02T01:40:00;17.00;91.30
30764;DHT22;17497;51.476;7.770;2022-09-02T01:42:27;17.10;91.00
30764;DHT22;17497;51.476;7.770;2022-09-02T01:44:54;17.10;90.80
30764;DHT22;17497;51.476;7.770;2022-09-02T01:47:24;17.10;90.80
30764;DHT22;17497;51.476;7.770;2022-09-02T01:49:51;17.20;90.60
30764;DHT22;17497;51.476;7.770;2022-09-02T01:52:21;17.30;90.60
30764;DHT22;17497;51.476;7.770;2022-09-02T01:54:48;17.20;90.60
30764;DHT22;17497;51.476;7.770;2022-09-02T01:57:16;17.20;90.80
30764;DHT22;17497;51.476;7.770;2022-09-02T01:59:42;17.20;90.80
30764;DHT22;17497;51.476;7.770;2022-09-02T02:02:12;17.20;90.60
30764;DHT22;17497;51.476;7.770;2022-09-02T02:04:40;17.20;90.80
30764;DHT22;17497;51.476;7.770;2022-09-02T02:07:06;17.20;91.00
30764;DHT22;17497;51.476;7.770;2022-09-02T02:09:33;17.20;91.00
30764;DHT22;17497;51.476;7.770;2022-09-02T02:12:00;17.10;91.00
30764;DHT22;17497;51.476;7.770;2022-09-02T02:14:27;17.20;91.00
30764;DHT22;17497;51.476;7.770;2022-09-02T02:16:54;17.10;91.00
30764;DHT22;17497;51.476;7.770;2022-09-02T02:19:20;17.10;91.00
30764;DHT22;17497;51.476;7.770;2022-09-02T02:21:48;17.10;91.10
30764;DHT22;17497;51.476;7.770;2022-09-02T02:24:14;17.10;91.20
30764;DHT22;17497;51.476;7.770;2022-09-02T02:26:41;17.10;91.10
30764;DHT22;17497;51.476;7.770;2022-09-02T02:29:08;17.10;91.50
30764;DHT22;17497;51.476;7.770;2022-09-02T02:31:35;17.10;91.40
30764;DHT22;17497;51.476;7.770;2022-09-02T02:34:03;17.00;91.40
30764;DHT22;17497;51.476;7.770;2022-09-02T02:36:30;17.00;91.40
30764;DHT22;17497;51.476;7.770;2022-09-02T02:38:57;17.00;91.60
30764;DHT22;17497;51.476;7.770;2022-09-02T02:41:24;16.90;91.60
30764;DHT22;17497;51.476;7.770;2022-09-02T02:43:52;16.90;92.00
30764;DHT22;17497;51.476;7.770;2022-09-02T02:46:18;16.90;91.70
30764;DHT22;17497;51.476;7.770;2022-09-02T02:48:45;16.90;91.80
30764;DHT22;17497;51.476;7.770;2022-09-02T02:51:13;16.90;92.10
30764;DHT22;17497;51.476;7.770;2022-09-02T02:53:40;16.90;92.00
30764;DHT22;17497;51.476;7.770;2022-09-02T02:56:07;16.90;92.30
30764;DHT22;17497;51.476;7.770;2022-09-02T02:58:35;16.90;92.50
30764;DHT22;17497;51.476;7.770;2022-09-02T03:01:02;16.90;92.20
30764;DHT22;17497;51.476;7.770;2022-09-02T03:03:29;16.90;92.40
30764;DHT22;17497;51.476;7.770;2022-09-02T03:05:56;16.90;92.20
30764;DHT22;17497;51.476;7.770;2022-09-02T03:08:23;16.90;92.40
30764;DHT22;17497;51.476;7.770;2022-09-02T03:10:52;16.90;92.40
30764;DHT22;17497;51.476;7.770;2022-09-02T03:13:22;16.90;92.20
30764;DHT22;17497;51.476;7.770;2022-09-02T03:15:49;16.90;92.40
30764;DHT22;17497;51.476;7.770;2022-09-02T03:18:16;16.90;92.50
30764;DHT22;17497;51.476;7.770;2022-09-02T03:20:44;16.80;92.40
30764;DHT22;17497;51.476;7.770;2022-09-02T03:23:11;16.80;92.40
30764;DHT22;17497;51.476;7.770;2022-09-02T03:25:41;16.90;92.50
30764;DHT22;17497;51.476;7.770;2022-09-02T03:28:09;16.80;92.40
30764;DHT22;17497;51.476;7.770;2022-09-02T03:30:38;16.80;92.70
30764;DHT22;17497;51.476;7.770;2022-09-02T03:33:05;16.80;92.90
30764;DHT22;17497;51.476;7.770;2022-09-02T03:35:33;16.80;92.70
30764;DHT22;17497;51.476;7.770;2022-09-02T03:38:03;16.90;92.70
30764;DHT22;17497;51.476;7.770;2022-09-02T03:40:30;16.90;92.60
30764;DHT22;17497;51.476;7.770;2022-09-02T03:42:56;16.90;92.70
30764;DHT22;17497;51.476;7.770;2022-09-02T03:45:26;16.90;92.70
30764;DHT22;17497;51.476;7.770;2022-09-02T03:47:53;16.90;93.00
30764;DHT22;17497;51.476;7.770;2022-09-02T03:50:24;16.90;92.90
30764;DHT22;17497;51.476;7.770;2022-09-02T03:52:52;16.90;92.80
30764;DHT22;17497;51.476;7.770;2022-09-02T03:55:18;16.90;93.10
30764;DHT22;17497;51.476;7.770;2022-09-02T03:57:46;16.90;93.10
30764;DHT22;17497;51.476;7.770;2022-09-02T04:00:15;16.90;93.20
30764;DHT22;17497;51.476;7.770;2022-09-02T04:02:43;16.90;93.20
30764;DHT22;17497;51.476;7.770;2022-09-02T04:05:16;17.00;93.10
30764;DHT22;17497;51.476;7.770;2022-09-02T04:07:43;17.00;93.20
30764;DHT22;17497;51.476;7.770;2022-09-02T04:10:13;16.90;93.30
30764;DHT22;17497;51.476;7.770;2022-09-02T04:12:40;16.90;93.40
30764;DHT22;17497;51.476;7.770;2022-09-02T04:15:09;16.90;93.20
30764;DHT22;17497;51.476;7.770;2022-09-02T04:17:38;16.90;93.70
30764;DHT22;17497;51.476;7.770;2022-09-02T04:20:07;16.90;93.80
30764;DHT22;17497;51.476;7.770;2022-09-02T04:22:35;16.90;93.80
30764;DHT22;17497;51.476;7.770;2022-09-02T04:25:02;16.90;93.80
30764;DHT22;17497;51.476;7.770;2022-09-02T04:27:29;16.90;93.70
30764;DHT22;17497;51.476;7.770;2022-09-02T04:29:56;16.90;93.60
30764;DHT22;17497;51.476;7.770;2022-09-02T04:32:23;17.00;93.60
30764;DHT22;17497;51.476;7.770;2022-09-02T04:34:52;17.00;93.70
30764;DHT22;17497;51.476;7.770;2022-09-02T04:37:18;17.00;93.70
30764;DHT22;17497;51.476;7.770;2022-09-02T04:39:45;17.00;93.80
30764;DHT22;17497;51.476;7.770;2022-09-02T04:42:12;17.00;93.90
30764;DHT22;17497;51.476;7.770;2022-09-02T04:44:39;17.00;93.80
30764;DHT22;17497;51.476;7.770;2022-09-02T04:47:05;17.00;93.80
30764;DHT22;17497;51.476;7.770;2022-09-02T04:49:32;17.00;94.00
30764;DHT22;17497;51.476;7.770;2022-09-02T04:51:59;17.00;93.80
30764;DHT22;17497;51.476;7.770;2022-09-02T04:54:26;17.00;94.10
30764;DHT22;17497;51.476;7.770;2022-09-02T04:56:53;17.00;94.00
30764;DHT22;17497;51.476;7.770;2022-09-02T04:59:20;17.00;94.20
30764;DHT22;17497;51.476;7.770;2022-09-02T05:01:47;17.00;94.60
30764;DHT22;17497;51.476;7.770;2022-09-02T05:04:16;17.00;94.80
30764;DHT22;17497;51.476;7.770;2022-09-02T05:06:42;17.00;94.50
30764;DHT22;17497;51.476;7.770;2022-09-02T05:09:10;17.00;94.60
30764;DHT22;17497;51.476;7.770;2022-09-02T05:11:37;17.00;94.70
30764;DHT22;17497;51.476;7.770;2022-09-02T05:14:05;16.90;95.00
30764;DHT22;17497;51.476;7.770;2022-09-02T05:16:36;17.00;94.60
30764;DHT22;17497;51.476;7.770;2022-09-02T05:19:05;17.00;94.80
30764;DHT22;17497;51.476;7.770;2022-09-02T05:21:32;17.00;95.00
30764;DHT22;17497;51.476;7.770;2022-09-02T05:24:00;17.00;95.00
30764;DHT22;17497;51.476;7.770;2022-09-02T05:26:27;17.00;94.80
30764;DHT22;17497;51.476;7.770;2022-09-02T05:28:54;17.00;95.10
30764;DHT22;17497;51.476;7.770;2022-09-02T05:31:21;17.00;94.90
30764;DHT22;17497;51.476;7.770;2022-09-02T05:33:48;17.00;94.90
30764;DHT22;17497;51.476;7.770;2022-09-02T05:36:18;17.10;95.20
30764;DHT22;17497;51.476;7.770;2022-09-02T05:38:46;17.10;95.30
30764;DHT22;17497;51.476;7.770;2022-09-02T05:41:18;17.10;95.60
30764;DHT22;17497;51.476;7.770;2022-09-02T05:43:50;17.10;95.90
30764;DHT22;17497;51.476;7.770;2022-09-02T05:46:21;17.10;96.00
30764;DHT22;17497;51.476;7.770;2022-09-02T05:48:50;17.20;95.70
30764;DHT22;17497;51.476;7.770;2022-09-02T05:51:47;17.30;95.40
30764;DHT22;17497;51.476;7.770;2022-09-02T05:54:30;17.30;95.70
30764;DHT22;17497;51.476;7.770;2022-09-02T05:57:00;17.40;95.40
30764;DHT22;17497;51.476;7.770;2022-09-02T05:59:30;17.50;95.40
30764;DHT22;17497;51.476;7.770;2022-09-02T06:01:57;17.50;95.60
30764;DHT22;17497;51.476;7.770;2022-09-02T06:04:25;17.60;95.50
30764;DHT22;17497;51.476;7.770;2022-09-02T06:06:52;17.60;96.50
30764;DHT22;17497;51.476;7.770;2022-09-02T06:09:20;17.50;96.10
30764;DHT22;17497;51.476;7.770;2022-09-02T06:11:48;17.60;96.10
30764;DHT22;17497;51.476;7.770;2022-09-02T06:14:19;17.60;96.00
30764;DHT22;17497;51.476;7.770;2022-09-02T06:16:48;17.60;96.00
30764;DHT22;17497;51.476;7.770;2022-09-02T06:19:16;17.60;96.00
30764;DHT22;17497;51.476;7.770;2022-09-02T06:21:47;17.50;96.60
30764;DHT22;17497;51.476;7.770;2022-09-02T06:24:15;17.50;96.50
30764;DHT22;17497;51.476;7.770;2022-09-02T06:26:42;17.50;97.40
30764;DHT22;17497;51.476;7.770;2022-09-02T06:29:10;17.40;96.80
30764;DHT22;17497;51.476;7.770;2022-09-02T06:31:41;17.40;97.30
30764;DHT22;17497;51.476;7.770;2022-09-02T06:34:08;17.40;97.00
30764;DHT22;17497;51.476;7.770;2022-09-02T06:36:38;17.40;97.30
30764;DHT22;17497;51.476;7.770;2022-09-02T06:39:05;17.40;97.50
30764;DHT22;17497;51.476;7.770;2022-09-02T06:41:32;17.30;97.40
30764;DHT22;17497;51.476;7.770;2022-09-02T06:44:02;17.30;97.60
30764;DHT22;17497;51.476;7.770;2022-09-02T06:46:35;17.30;97.70
30764;DHT22;17497;51.476;7.770;2022-09-02T06:49:04;17.30;97.70
30764;DHT22;17497;51.476;7.770;2022-09-02T06:51:34;17.30;97.80
30764;DHT22;17497;51.476;7.770;2022-09-02T06:54:04;17.30;97.90
30764;DHT22;17497;51.476;7.770;2022-09-02T06:56:33;17.40;97.90
30764;DHT22;17497;51.476;7.770;2022-09-02T06:59:00;17.40;98.10
30764;DHT22;17497;51.476;7.770;2022-09-02T07:01:29;17.50;98.10
30764;DHT22;17497;51.476;7.770;2022-09-02T07:03:57;17.50;98.50
30764;DHT22;17497;51.476;7.770;2022-09-02T07:06:45;17.60;98.70
30764;DHT22;17497;51.476;7.770;2022-09-02T07:09:16;17.70;98.30
30764;DHT22;17497;51.476;7.770;2022-09-02T07:11:44;17.80;98.40
30764;DHT22;17497;51.476;7.770;2022-09-02T07:14:18;17.80;98.60
30764;DHT22;17497;51.476;7.770;2022-09-02T07:16:49;18.00;98.40
30764;DHT22;17497;51.476;7.770;2022-09-02T07:19:18;18.10;98.70
30764;DHT22;17497;51.476;7.770;2022-09-02T07:21:48;18.20;98.20
30764;DHT22;17497;51.476;7.770;2022-09-02T07:24:15;18.20;98.00
30764;DHT22;17497;51.476;7.770;2022-09-02T07:26:43;18.30;97.80
30764;DHT22;17497;51.476;7.770;2022-09-02T07:29:10;18.30;98.10
30764;DHT22;17497;51.476;7.770;2022-09-02T07:31:39;18.40;97.80
30764;DHT22;17497;51.476;7.770;2022-09-02T07:34:06;18.40;98.80
30764;DHT22;17497;51.476;7.770;2022-09-02T07:36:37;18.50;97.70
30764;DHT22;17497;51.476;7.770;2022-09-02T07:39:06;18.60;97.30
30764;DHT22;17497;51.476;7.770;2022-09-02T07:41:34;18.70;97.00
30764;DHT22;17497;51.476;7.770;2022-09-02T07:44:01;18.70;97.40
30764;DHT22;17497;51.476;7.770;2022-09-02T07:46:28;18.80;96.90
30764;DHT22;17497;51.476;7.770;2022-09-02T07:49:01;18.80;96.80
30764;DHT22;17497;51.476;7.770;2022-09-02T07:51:37;18.90;96.90
30764;DHT22;17497;51.476;7.770;2022-09-02T07:54:06;18.90;96.90
30764;DHT22;17497;51.476;7.770;2022-09-02T07:56:35;19.00;96.60
30764;DHT22;17497;51.476;7.770;2022-09-02T07:59:01;19.10;96.80
30764;DHT22;17497;51.476;7.770;2022-09-02T08:01:29;19.20;97.00
30764;DHT22;17497;51.476;7.770;2022-09-02T08:03:57;19.20;97.10
30764;DHT22;17497;51.476;7.770;2022-09-02T08:06:28;19.30;96.90
30764;DHT22;17497;51.476;7.770;2022-09-02T08:09:02;19.40;97.30
30764;DHT22;17497;51.476;7.770;2022-09-02T08:11:30;19.40;96.70
30764;DHT22;17497;51.476;7.770;2022-09-02T08:13:58;19.50;96.50
30764;DHT22;17497;51.476;7.770;2022-09-02T08:16:26;19.60;96.30
30764;DHT22;17497;51.476;7.770;2022-09-02T08:18:54;19.60;96.70
30764;DHT22;17497;51.476;7.770;2022-09-02T08:21:21;19.70;96.20
30764;DHT22;17497;51.476;7.770;2022-09-02T08:23:48;19.80;96.50
30764;DHT22;17497;51.476;7.770;2022-09-02T08:26:18;19.80;96.40
30764;DHT22;17497;51.476;7.770;2022-09-02T08:28:46;19.90;96.30
30764;DHT22;17497;51.476;7.770;2022-09-02T08:31:13;20.10;96.20
30764;DHT22;17497;51.476;7.770;2022-09-02T08:33:40;20.20;95.80
30764;DHT22;17497;51.476;7.770;2022-09-02T08:36:09;20.30;95.50
30764;DHT22;17497;51.476;7.770;2022-09-02T08:38:37;20.40;95.40
30764;DHT22;17497;51.476;7.770;2022-09-02T08:44:28;20.50;94.50
30764;DHT22;17497;51.476;7.770;2022-09-02T08:47:00;20.60;94.50
30764;DHT22;17497;51.476;7.770;2022-09-02T08:49:34;20.60;94.50
30764;DHT22;17497;51.476;7.770;2022-09-02T08:52:04;20.60;94.90
30764;DHT22;17497;51.476;7.770;2022-09-02T08:57:09;20.80;95.00
30764;DHT22;17497;51.476;7.770;2022-09-02T08:59:37;20.90;94.00
30764;DHT22;17497;51.476;7.770;2022-09-02T09:07:28;21.00;94.10
30764;DHT22;17497;51.476;7.770;2022-09-02T09:15:31;21.40;94.40
30764;DHT22;17497;51.476;7.770;2022-09-02T09:18:00;21.50;93.80
30764;DHT22;17497;51.476;7.770;2022-09-02T09:20:37;21.70;93.90
30764;DHT22;17497;51.476;7.770;2022-09-02T09:23:26;21.90;93.00
30764;DHT22;17497;51.476;7.770;2022-09-02T09:26:16;22.10;91.90
30764;DHT22;17497;51.476;7.770;2022-09-02T09:28:47;22.20;91.40
30764;DHT22;17497;51.476;7.770;2022-09-02T09:31:17;22.40;91.10
30764;DHT22;17497;51.476;7.770;2022-09-02T09:34:10;22.50;91.20
30764;DHT22;17497;51.476;7.770;2022-09-02T09:39:31;22.70;90.30
30764;DHT22;17497;51.476;7.770;2022-09-02T09:42:03;22.70;90.00
30764;DHT22;17497;51.476;7.770;2022-09-02T09:44:52;22.70;90.10
30764;DHT22;17497;51.476;7.770;2022-09-02T09:47:22;22.60;90.20
30764;DHT22;17497;51.476;7.770;2022-09-02T09:49:52;22.70;90.70
30764;DHT22;17497;51.476;7.770;2022-09-02T09:52:27;22.70;91.80
30764;DHT22;17497;51.476;7.770;2022-09-02T09:57:40;22.90;91.30
30764;DHT22;17497;51.476;7.770;2022-09-02T10:00:31;23.10;90.90
30764;DHT22;17497;51.476;7.770;2022-09-02T10:03:06;23.20;91.40
30764;DHT22;17497;51.476;7.770;2022-09-02T10:05:36;23.40;90.20
30764;DHT22;17497;51.476;7.770;2022-09-02T10:08:27;23.60;90.30
30764;DHT22;17497;51.476;7.770;2022-09-02T10:11:04;23.90;88.80
30764;DHT22;17497;51.476;7.770;2022-09-02T10:13:34;24.10;89.50
30764;DHT22;17497;51.476;7.770;2022-09-02T10:27:40;25.10;76.50
30764;DHT22;17497;51.476;7.770;2022-09-02T10:30:24;25.30;70.50
30764;DHT22;17497;51.476;7.770;2022-09-02T10:33:04;25.40;70.70
30764;DHT22;17497;51.476;7.770;2022-09-02T10:38:45;25.90;69.30
30764;DHT22;17497;51.476;7.770;2022-09-02T10:47:09;26.40;69.00
30764;DHT22;17497;51.476;7.770;2022-09-02T10:49:47;26.60;61.50
30764;DHT22;17497;51.476;7.770;2022-09-02T10:57:38;27.80;59.30
30764;DHT22;17497;51.476;7.770;2022-09-02T11:00:17;28.20;58.20
30764;DHT22;17497;51.476;7.770;2022-09-02T11:02:57;28.30;56.60
30764;DHT22;17497;51.476;7.770;2022-09-02T11:05:37;27.80;56.90
30764;DHT22;17497;51.476;7.770;2022-09-02T11:08:45;27.10;57.30
30764;DHT22;17497;51.476;7.770;2022-09-02T11:11:35;26.90;56.60
30764;DHT22;17497;51.476;7.770;2022-09-02T11:14:21;26.70;59.10
30764;DHT22;17497;51.476;7.770;2022-09-02T11:16:54;26.30;59.30
30764;DHT22;17497;51.476;7.770;2022-09-02T11:19:41;26.00;60.00
30764;DHT22;17497;51.476;7.770;2022-09-02T11:22:26;25.70;61.20
30764;DHT22;17497;51.476;7.770;2022-09-02T11:25:04;25.50;60.60
30764;DHT22;17497;51.476;7.770;2022-09-02T11:30:18;25.80;62.10
30764;DHT22;17497;51.476;7.770;2022-09-02T11:35:24;28.10;57.10
30764;DHT22;17497;51.476;7.770;2022-09-02T11:38:04;29.00;55.30
30764;DHT22;17497;51.476;7.770;2022-09-02T11:40:37;29.00;54.70
30764;DHT22;17497;51.476;7.770;2022-09-02T11:43:30;28.60;54.40
30764;DHT22;17497;51.476;7.770;2022-09-02T11:52:26;28.20;54.70
30764;DHT22;17497;51.476;7.770;2022-09-02T11:55:05;29.10;54.00
30764;DHT22;17497;51.476;7.770;2022-09-02T11:57:34;30.00;52.80
30764;DHT22;17497;51.476;7.770;2022-09-02T12:00:07;30.70;51.90
30764;DHT22;17497;51.476;7.770;2022-09-02T12:05:43;31.50;51.60
30764;DHT22;17497;51.476;7.770;2022-09-02T12:08:14;31.20;49.70
30764;DHT22;17497;51.476;7.770;2022-09-02T12:11:06;31.70;48.60
30764;DHT22;17497;51.476;7.770;2022-09-02T12:21:27;28.90;50.60
30764;DHT22;17497;51.476;7.770;2022-09-02T12:31:51;26.80;53.90
30764;DHT22;17497;51.476;7.770;2022-09-02T12:36:52;27.00;53.90
30764;DHT22;17497;51.476;7.770;2022-09-02T12:42:29;27.30;53.00
30764;DHT22;17497;51.476;7.770;2022-09-02T12:50:24;27.70;52.70
30764;DHT22;17497;51.476;7.770;2022-09-02T12:53:41;27.50;53.70
30764;DHT22;17497;51.476;7.770;2022-09-02T12:59:17;27.00;54.30
30764;DHT22;17497;51.476;7.770;2022-09-02T13:01:50;26.70;54.70
30764;DHT22;17497;51.476;7.770;2022-09-02T13:05:16;26.40;55.10
30764;DHT22;17497;51.476;7.770;2022-09-02T13:16:36;28.90;53.20
30764;DHT22;17497;51.476;7.770;2022-09-02T13:19:37;29.30;51.60
30764;DHT22;17497;51.476;7.770;2022-09-02T13:33:20;29.10;50.10
30764;DHT22;17497;51.476;7.770;2022-09-02T13:35:53;28.90;50.70
30764;DHT22;17497;51.476;7.770;2022-09-02T13:38:22;28.70;51.20
30764;DHT22;17497;51.476;7.770;2022-09-02T13:40:50;28.60;52.00
30764;DHT22;17497;51.476;7.770;2022-09-02T13:43:19;28.60;51.00
30764;DHT22;17497;51.476;7.770;2022-09-02T13:45:48;28.60;50.10
30764;DHT22;17497;51.476;7.770;2022-09-02T13:48:22;28.30;50.40
30764;DHT22;17497;51.476;7.770;2022-09-02T13:50:52;28.00;51.80
30764;DHT22;17497;51.476;7.770;2022-09-02T13:53:34;27.60;51.50
30764;DHT22;17497;51.476;7.770;2022-09-02T13:56:15;27.20;52.10
30764;DHT22;17497;51.476;7.770;2022-09-02T13:58:51;26.90;52.90
30764;DHT22;17497;51.476;7.770;2022-09-02T14:01:33;26.70;53.10
30764;DHT22;17497;51.476;7.770;2022-09-02T14:04:08;26.60;53.30
30764;DHT22;17497;51.476;7.770;2022-09-02T14:06:40;26.40;54.00
30764;DHT22;17497;51.476;7.770;2022-09-02T14:09:18;26.30;54.40
30764;DHT22;17497;51.476;7.770;2022-09-02T14:11:45;26.10;55.10
30764;DHT22;17497;51.476;7.770;2022-09-02T14:14:16;25.90;55.60
30764;DHT22;17497;51.476;7.770;2022-09-02T14:16:45;25.70;56.20
30764;DHT22;17497;51.476;7.770;2022-09-02T14:19:24;25.60;56.20
30764;DHT22;17497;51.476;7.770;2022-09-02T14:21:53;25.40;56.40
30764;DHT22;17497;51.476;7.770;2022-09-02T14:24:29;25.30;56.40
30764;DHT22;17497;51.476;7.770;2022-09-02T14:27:17;25.60;56.20
30764;DHT22;17497;51.476;7.770;2022-09-02T14:29:45;26.10;55.70
30764;DHT22;17497;51.476;7.770;2022-09-02T14:35:08;26.70;54.80
30764;DHT22;17497;51.476;7.770;2022-09-02T14:38:07;27.10;54.50
30764;DHT22;17497;51.476;7.770;2022-09-02T14:40:48;27.10;53.60
30764;DHT22;17497;51.476;7.770;2022-09-02T14:43:15;27.20;53.60
30764;DHT22;17497;51.476;7.770;2022-09-02T14:45:48;27.10;53.80
30764;DHT22;17497;51.476;7.770;2022-09-02T14:48:24;27.20;53.80
30764;DHT22;17497;51.476;7.770;2022-09-02T14:50:59;27.30;54.20
30764;DHT22;17497;51.476;7.770;2022-09-02T14:53:30;27.60;53.40
30764;DHT22;17497;51.476;7.770;2022-09-02T14:55:58;28.00;51.90
30764;DHT22;17497;51.476;7.770;2022-09-02T14:58:26;28.20;52.00
30764;DHT22;17497;51.476;7.770;2022-09-02T15:00:57;28.50;51.20
30764;DHT22;17497;51.476;7.770;2022-09-02T15:03:25;28.80;51.20
30764;DHT22;17497;51.476;7.770;2022-09-02T15:05:52;29.20;49.70
30764;DHT22;17497;51.476;7.770;2022-09-02T15:08:21;29.40;48.90
30764;DHT22;17497;51.476;7.770;2022-09-02T15:10:49;29.50;49.30
30764;DHT22;17497;51.476;7.770;2022-09-02T15:13:31;29.60;49.40
30764;DHT22;17497;51.476;7.770;2022-09-02T15:16:00;29.80;49.20
30764;DHT22;17497;51.476;7.770;2022-09-02T15:18:28;29.90;48.70
30764;DHT22;17497;51.476;7.770;2022-09-02T15:20:55;30.00;48.70
30764;DHT22;17497;51.476;7.770;2022-09-02T15:23:23;30.10;48.20
30764;DHT22;17497;51.476;7.770;2022-09-02T15:25:53;30.20;48.30
30764;DHT22;17497;51.476;7.770;2022-09-02T15:28:20;30.20;47.80
30764;DHT22;17497;51.476;7.770;2022-09-02T15:30:47;30.20;47.20
30764;DHT22;17497;51.476;7.770;2022-09-02T15:33:15;30.10;47.90
30764;DHT22;17497;51.476;7.770;2022-09-02T15:35:43;29.90;47.70
30764;DHT22;17497;51.476;7.770;2022-09-02T15:38:12;29.90;47.90
30764;DHT22;17497;51.476;7.770;2022-09-02T15:40:38;29.90;48.30
30764;DHT22;17497;51.476;7.770;2022-09-02T15:43:05;29.90;47.50
30764;DHT22;17497;51.476;7.770;2022-09-02T15:45:32;30.00;47.00
30764;DHT22;17497;51.476;7.770;2022-09-02T15:48:00;30.00;47.30
30764;DHT22;17497;51.476;7.770;2022-09-02T15:50:30;30.10;47.30
30764;DHT22;17497;51.476;7.770;2022-09-02T15:52:57;30.20;47.10
30764;DHT22;17497;51.476;7.770;2022-09-02T15:55:24;30.20;46.20
30764;DHT22;17497;51.476;7.770;2022-09-02T15:57:55;30.00;46.40
30764;DHT22;17497;51.476;7.770;2022-09-02T16:00:22;29.70;46.60
30764;DHT22;17497;51.476;7.770;2022-09-02T16:02:54;29.20;47.40
30764;DHT22;17497;51.476;7.770;2022-09-02T16:05:22;28.60;48.10
30764;DHT22;17497;51.476;7.770;2022-09-02T16:07:49;28.00;49.20
30764;DHT22;17497;51.476;7.770;2022-09-02T16:10:17;27.40;49.90
30764;DHT22;17497;51.476;7.770;2022-09-02T16:12:44;27.00;50.80
30764;DHT22;17497;51.476;7.770;2022-09-02T16:15:11;26.80;50.80
30764;DHT22;17497;51.476;7.770;2022-09-02T16:17:37;26.50;51.40
30764;DHT22;17497;51.476;7.770;2022-09-02T16:20:04;26.20;52.40
30764;DHT22;17497;51.476;7.770;2022-09-02T16:22:31;26.10;53.00
30764;DHT22;17497;51.476;7.770;2022-09-02T16:25:00;26.20;52.40
30764;DHT22;17497;51.476;7.770;2022-09-02T16:27:27;26.30;52.10
30764;DHT22;17497;51.476;7.770;2022-09-02T16:30:12;26.40;52.00
30764;DHT22;17497;51.476;7.770;2022-09-02T16:32:39;26.50;52.30
30764;DHT22;17497;51.476;7.770;2022-09-02T16:35:06;26.50;52.30
30764;DHT22;17497;51.476;7.770;2022-09-02T16:37:33;26.40;52.30
30764;DHT22;17497;51.476;7.770;2022-09-02T16:40:00;26.20;52.80
30764;DHT22;17497;51.476;7.770;2022-09-02T16:42:28;26.00;53.00
30764;DHT22;17497;51.476;7.770;2022-09-02T16:44:57;25.80;53.30
30764;DHT22;17497;51.476;7.770;2022-09-02T16:47:24;25.60;53.50
30764;DHT22;17497;51.476;7.770;2022-09-02T16:49:50;25.40;53.60
30764;DHT22;17497;51.476;7.770;2022-09-02T16:52:17;25.30;54.00
30764;DHT22;17497;51.476;7.770;2022-09-02T16:54:44;25.20;54.10
30764;DHT22;17497;51.476;7.770;2022-09-02T16:57:11;25.10;54.60
30764;DHT22;17497;51.476;7.770;2022-09-02T16:59:38;24.90;54.60
30764;DHT22;17497;51.476;7.770;2022-09-02T17:02:05;24.80;55.10
30764;DHT22;17497;51.476;7.770;2022-09-02T17:04:32;24.70;54.90
30764;DHT22;17497;51.476;7.770;2022-09-02T17:06:59;24.60;55.70
30764;DHT22;17497;51.476;7.770;2022-09-02T17:09:25;24.60;55.60
30764;DHT22;17497;51.476;7.770;2022-09-02T17:11:52;24.50;55.20
30764;DHT22;17497;51.476;7.770;2022-09-02T17:14:19;24.40;55.70
30764;DHT22;17497;51.476;7.770;2022-09-02T17:16:49;24.30;55.80
30764;DHT22;17497;51.476;7.770;2022-09-02T17:19:18;24.20;56.40
30764;DHT22;17497;51.476;7.770;2022-09-02T17:21:53;24.10;56.90
30764;DHT22;17497;51.476;7.770;2022-09-02T17:24:24;24.00;56.60
30764;DHT22;17497;51.476;7.770;2022-09-02T17:26:53;23.90;57.10
30764;DHT22;17497;51.476;7.770;2022-09-02T17:29:23;23.80;57.30
30764;DHT22;17497;51.476;7.770;2022-09-02T17:32:10;23.70;57.30
30764;DHT22;17497;51.476;7.770;2022-09-02T17:34:37;23.70;57.80
30764;DHT22;17497;51.476;7.770;2022-09-02T17:37:04;23.60;57.90
30764;DHT22;17497;51.476;7.770;2022-09-02T17:39:31;23.50;58.80
30764;DHT22;17497;51.476;7.770;2022-09-02T17:41:59;23.50;58.30
30764;DHT22;17497;51.476;7.770;2022-09-02T17:44:30;23.40;58.40
30764;DHT22;17497;51.476;7.770;2022-09-02T17:47:02;23.30;59.00
30764;DHT22;17497;51.476;7.770;2022-09-02T17:49:34;23.30;59.00
30764;DHT22;17497;51.476;7.770;2022-09-02T17:52:05;23.20;59.30